createdAt,value
2024-04-09T00:00:55.513Z,0.8
2024-04-09T00:02:07.438Z,0.5
2024-04-09T00:03:19.464Z,0.8
2024-04-09T00:04:31.625Z,0
2024-04-09T00:05:43.517Z,0
2024-04-09T00:06:55.480Z,0
2024-04-09T00:08:10.873Z,0
2024-04-09T00:09:19.550Z,0
2024-04-09T00:10:31.466Z,0
2024-04-09T00:11:43.532Z,0
2024-04-09T00:12:55.441Z,0
2024-04-09T00:14:07.479Z,0
2024-04-09T00:15:19.465Z,0
2024-04-09T00:16:32.460Z,0
2024-04-09T00:17:43.585Z,0
2024-04-09T00:18:55.553Z,0
2024-04-09T00:21:19.515Z,0
2024-04-09T00:22:31.473Z,0
2024-04-09T00:23:43.462Z,0
2024-04-09T00:24:55.476Z,0
2024-04-09T00:26:07.474Z,0
2024-04-09T00:27:19.533Z,0
2024-04-09T00:28:31.558Z,0
2024-04-09T00:29:43.455Z,0
2024-04-09T00:30:55.467Z,0
2024-04-09T00:32:07.488Z,0
2024-04-09T00:33:19.771Z,0
2024-04-09T00:34:31.759Z,0
2024-04-09T00:35:43.458Z,0.5
2024-04-09T00:36:55.447Z,0.6
2024-04-09T00:38:07.557Z,0
2024-04-09T00:39:19.493Z,0
2024-04-09T00:40:31.457Z,0.7
2024-04-09T00:41:43.437Z,0.6
2024-04-09T00:42:55.460Z,0.5
2024-04-09T00:44:07.472Z,0
2024-04-09T00:45:19.500Z,0
2024-04-09T00:46:31.595Z,0
2024-04-09T00:47:45.672Z,0
2024-04-09T00:48:55.690Z,0
2024-04-09T00:50:07.517Z,0
2024-04-09T00:51:20.002Z,0
2024-04-09T00:52:31.917Z,0
2024-04-09T00:53:43.891Z,0.5
2024-04-09T00:54:55.880Z,0
2024-04-09T00:56:07.913Z,0
2024-04-09T00:57:19.883Z,0
2024-04-09T00:58:31.978Z,0
2024-04-09T00:59:43.901Z,0
2024-04-09T01:00:55.900Z,0.8
2024-04-09T01:02:07.916Z,1.1
2024-04-09T01:03:20.020Z,0.9
2024-04-09T01:04:32.138Z,0.6
2024-04-09T01:05:44.876Z,0.5
2024-04-09T01:06:55.901Z,0
2024-04-09T01:08:07.980Z,0
2024-04-09T01:09:19.914Z,0.7
2024-04-09T01:10:31.918Z,0.5
2024-04-09T01:11:43.881Z,0.5
2024-04-09T01:12:55.873Z,0
2024-04-09T01:14:07.877Z,0.7
2024-04-09T01:15:19.914Z,0
2024-04-09T01:16:31.945Z,0
2024-04-09T01:17:43.909Z,0
2024-04-09T01:18:55.915Z,0
2024-04-09T01:20:07.911Z,0.5
2024-04-09T01:21:19.946Z,0
2024-04-09T01:22:32.015Z,0
2024-04-09T01:23:43.902Z,0
2024-04-09T01:24:55.896Z,0.6
2024-04-09T01:26:07.909Z,0
2024-04-09T01:27:19.918Z,1
2024-04-09T01:28:32.004Z,0
2024-04-09T01:29:43.941Z,0
2024-04-09T01:30:55.889Z,0
2024-04-09T01:32:07.903Z,0
2024-04-09T01:33:20.007Z,0.5
2024-04-09T01:34:32.026Z,0.8
2024-04-09T01:35:43.910Z,0.7
2024-04-09T01:36:55.890Z,0
2024-04-09T01:38:07.924Z,0
2024-04-09T01:39:19.928Z,0
2024-04-09T01:40:31.915Z,0.5
2024-04-09T01:42:55.906Z,0
2024-04-09T01:44:07.940Z,0
2024-04-09T01:45:19.934Z,0.5
2024-04-09T01:46:31.907Z,1.1
2024-04-09T01:47:43.931Z,0
2024-04-09T01:48:56.020Z,0.5
2024-04-09T01:50:07.882Z,0
2024-04-09T01:51:20.391Z,0
2024-04-09T01:52:32.377Z,0
2024-04-09T01:53:44.326Z,0
2024-04-09T01:54:56.326Z,0
2024-04-09T01:56:08.340Z,0
2024-04-09T01:57:20.401Z,0
2024-04-09T01:58:32.372Z,0.5
2024-04-09T01:59:44.326Z,0.6
2024-04-09T02:00:56.550Z,0
2024-04-09T02:02:08.355Z,0
2024-04-09T02:03:20.446Z,0
2024-04-09T02:04:32.351Z,0
2024-04-09T02:05:44.359Z,0
2024-04-09T02:06:56.334Z,0.7
2024-04-09T02:08:08.325Z,0
2024-04-09T02:09:20.404Z,0
2024-04-09T02:10:32.341Z,0.9
2024-04-09T02:12:56.405Z,0
2024-04-09T02:14:08.316Z,0.6
2024-04-09T02:15:20.343Z,0
2024-04-09T02:16:32.352Z,0
2024-04-09T02:17:44.372Z,0
2024-04-09T02:18:56.507Z,0.7
2024-04-09T02:20:08.376Z,0
2024-04-09T02:21:20.357Z,0
2024-04-09T02:22:32.342Z,0
2024-04-09T02:23:44.346Z,0.9
2024-04-09T02:24:56.314Z,0.8
2024-04-09T02:26:08.348Z,0.9
2024-04-09T02:27:20.325Z,0.8
2024-04-09T02:28:32.325Z,0.7
2024-04-09T02:29:44.346Z,0.6
2024-04-09T02:30:56.346Z,1.1
2024-04-09T02:32:08.412Z,1
2024-04-09T02:33:20.396Z,0
2024-04-09T02:34:32.389Z,0
2024-04-09T02:35:44.335Z,0
2024-04-09T02:36:56.342Z,0
2024-04-09T02:38:08.360Z,0.6
2024-04-09T02:39:20.406Z,0.5
2024-04-09T02:40:32.334Z,0
2024-04-09T02:41:44.356Z,0
2024-04-09T02:42:56.327Z,0
2024-04-09T02:44:08.343Z,0.7
2024-04-09T02:45:20.372Z,0
2024-04-09T02:46:20.376Z,0.5
2024-04-09T02:47:32.376Z,0.6
2024-04-09T02:48:44.464Z,0
2024-04-09T02:49:56.315Z,0.6
2024-04-09T02:51:08.341Z,0.5
2024-04-09T02:52:20.790Z,0.8
2024-04-09T02:53:32.756Z,0.8
2024-04-09T02:54:44.764Z,0.9
2024-04-09T02:55:56.764Z,0.9
2024-04-09T02:57:08.826Z,0.6
2024-04-09T02:58:20.764Z,0.5
2024-04-09T02:59:32.783Z,0.8
2024-04-09T03:00:44.918Z,0.7
2024-04-09T03:01:56.835Z,0.7
2024-04-09T03:03:08.833Z,1
2024-04-09T03:04:21.002Z,0.9
2024-04-09T03:05:32.778Z,0
2024-04-09T03:06:44.780Z,0.6
2024-04-09T03:07:56.774Z,0
2024-04-09T03:09:08.819Z,0
2024-04-09T03:10:20.791Z,0
2024-04-09T03:11:32.747Z,0
2024-04-09T03:12:44.901Z,0
2024-04-09T03:13:56.761Z,0
2024-04-09T03:15:08.791Z,0
2024-04-09T03:16:20.828Z,0
2024-04-09T03:17:32.768Z,0.5
2024-04-09T03:18:45.005Z,0
2024-04-09T03:19:56.815Z,0
2024-04-09T03:21:08.819Z,0
2024-04-09T03:22:20.775Z,0
2024-04-09T03:23:32.757Z,0
2024-04-09T03:24:44.781Z,0
2024-04-09T03:25:56.878Z,0.7
2024-04-09T03:27:08.814Z,0
2024-04-09T03:28:20.778Z,0.5
2024-04-09T03:29:32.765Z,0
2024-04-09T03:30:44.793Z,0.6
2024-04-09T03:31:56.792Z,1
2024-04-09T03:33:08.913Z,0.8
2024-04-09T03:34:20.797Z,0.6
2024-04-09T03:35:32.781Z,0.8
2024-04-09T03:36:44.812Z,0.7
2024-04-09T03:37:56.758Z,0.5
2024-04-09T03:39:08.896Z,0
2024-04-09T03:40:20.783Z,0.7
2024-04-09T03:41:32.825Z,0.6
2024-04-09T03:42:44.777Z,0
2024-04-09T03:43:56.765Z,0
2024-04-09T03:45:08.813Z,0.6
2024-04-09T03:46:20.907Z,0
2024-04-09T03:47:32.821Z,0
2024-04-09T03:48:45.549Z,0.6
2024-04-09T03:49:56.749Z,0.6
2024-04-09T03:51:09.217Z,0.5
2024-04-09T03:52:21.259Z,0.8
2024-04-09T03:53:33.218Z,0.8
2024-04-09T03:54:45.258Z,0
2024-04-09T03:55:57.223Z,0
2024-04-09T03:57:09.275Z,0
2024-04-09T03:58:21.230Z,0
2024-04-09T03:59:33.230Z,0
2024-04-09T04:00:45.248Z,0
2024-04-09T04:01:57.250Z,0.6
2024-04-09T04:03:09.303Z,0
2024-04-09T04:04:21.279Z,2.2
2024-04-09T04:05:33.221Z,0.6
2024-04-09T04:06:45.239Z,0.6
2024-04-09T04:07:57.203Z,0.9
2024-04-09T04:09:09.265Z,0.6
2024-04-09T04:10:21.238Z,0.5
2024-04-09T04:11:33.371Z,0.5
2024-04-09T04:12:45.239Z,0.6
2024-04-09T04:13:57.228Z,0
2024-04-09T04:15:09.234Z,0
2024-04-09T04:16:21.229Z,0
2024-04-09T04:17:33.237Z,0.7
2024-04-09T04:18:45.534Z,0.7
2024-04-09T04:19:57.234Z,0
2024-04-09T04:21:11.442Z,0
2024-04-09T04:22:21.217Z,0
2024-04-09T04:23:33.230Z,0
2024-04-09T04:24:45.232Z,0
2024-04-09T04:25:57.222Z,0
2024-04-09T04:27:09.243Z,0.8
2024-04-09T04:28:21.195Z,0
2024-04-09T04:29:33.211Z,0
2024-04-09T04:30:45.248Z,0
2024-04-09T04:31:57.198Z,0
2024-04-09T04:33:09.323Z,0
2024-04-09T04:34:21.271Z,0
2024-04-09T04:35:33.237Z,0
2024-04-09T04:36:45.268Z,0
2024-04-09T04:37:57.229Z,0
2024-04-09T04:39:09.286Z,0
2024-04-09T04:40:21.218Z,0
2024-04-09T04:41:33.226Z,0.5
2024-04-09T04:42:45.238Z,0
2024-04-09T04:43:57.403Z,0
2024-04-09T04:45:09.290Z,0
2024-04-09T04:46:21.228Z,0.6
2024-04-09T04:47:33.268Z,0
2024-04-09T04:48:45.294Z,0
2024-04-09T04:49:57.188Z,0.8
2024-04-09T04:51:09.665Z,0.8
2024-04-09T04:52:21.659Z,0.5
2024-04-09T04:53:33.675Z,0.5
2024-04-09T04:54:45.801Z,0
2024-04-09T04:55:57.677Z,0
2024-04-09T04:57:09.712Z,0.9
2024-04-09T04:58:21.683Z,0.7
2024-04-09T04:59:33.643Z,1
2024-04-09T05:00:45.713Z,1
2024-04-09T05:01:57.639Z,1.2
2024-04-09T05:03:21.851Z,0.5
2024-04-09T05:04:33.763Z,0.5
2024-04-09T05:05:45.644Z,1
2024-04-09T05:06:57.646Z,1.9
2024-04-09T05:08:09.639Z,0
2024-04-09T05:09:33.717Z,0.5
2024-04-09T05:10:45.692Z,0
2024-04-09T05:11:57.736Z,0
2024-04-09T05:14:09.631Z,0
2024-04-09T05:15:21.690Z,0
2024-04-09T05:16:33.676Z,0
2024-04-09T05:17:45.778Z,0
2024-04-09T05:18:57.840Z,0
2024-04-09T05:20:09.628Z,0
2024-04-09T05:21:21.698Z,0
2024-04-09T05:22:33.627Z,0
2024-04-09T05:23:45.633Z,0
2024-04-09T05:24:57.639Z,0
2024-04-09T05:26:09.635Z,0
2024-04-09T05:27:21.686Z,0
2024-04-09T05:28:33.660Z,0
2024-04-09T05:29:45.669Z,0
2024-04-09T05:30:57.707Z,0
2024-04-09T05:32:09.715Z,0
2024-04-09T05:33:21.756Z,0
2024-04-09T05:34:33.669Z,0.8
2024-04-09T05:35:45.657Z,0.9
2024-04-09T05:36:57.690Z,0
2024-04-09T05:38:09.641Z,0.6
2024-04-09T05:39:21.650Z,1.1
2024-04-09T05:40:33.640Z,0
2024-04-09T05:41:33.672Z,0
2024-04-09T05:43:45.642Z,0.6
2024-04-09T05:44:57.666Z,0
2024-04-09T05:46:09.644Z,0
2024-04-09T05:47:21.687Z,0.5
2024-04-09T05:48:33.798Z,1.2
2024-04-09T05:49:45.688Z,0
2024-04-09T05:50:57.702Z,0
2024-04-09T05:52:10.164Z,0
2024-04-09T05:53:22.095Z,0
2024-04-09T05:54:34.089Z,0.5
2024-04-09T05:55:46.081Z,0.6
2024-04-09T05:56:58.106Z,0.5
2024-04-09T05:58:10.127Z,0.5
2024-04-09T05:59:22.093Z,0.8
2024-04-09T06:00:34.341Z,0.9
2024-04-09T06:01:46.194Z,0
2024-04-09T06:02:58.109Z,0
2024-04-09T06:04:12.058Z,0
2024-04-09T06:05:22.122Z,0
2024-04-09T06:06:34.151Z,0
2024-04-09T06:07:46.092Z,0
2024-04-09T06:08:58.107Z,0
2024-04-09T06:10:10.076Z,0
2024-04-09T06:11:22.101Z,0
2024-04-09T06:12:34.235Z,0
2024-04-09T06:13:46.108Z,0
2024-04-09T06:14:58.169Z,0
2024-04-09T06:16:10.151Z,0
2024-04-09T06:17:22.094Z,0
2024-04-09T06:18:34.221Z,0.5
2024-04-09T06:19:46.166Z,0.6
2024-04-09T06:20:58.149Z,0.7
2024-04-09T06:22:10.087Z,0
2024-04-09T06:23:22.115Z,0
2024-04-09T06:24:34.125Z,0
2024-04-09T06:25:46.076Z,0.8
2024-04-09T06:26:58.263Z,0
2024-04-09T06:28:10.070Z,0
2024-04-09T06:29:22.083Z,0.7
2024-04-09T06:30:34.191Z,0.5
2024-04-09T06:31:46.134Z,0.7
2024-04-09T06:32:58.384Z,0
2024-04-09T06:34:10.172Z,0.9
2024-04-09T06:35:22.065Z,0
2024-04-09T06:36:34.152Z,0.7
2024-04-09T06:37:46.084Z,0.7
2024-04-09T06:38:58.182Z,0
2024-04-09T06:40:10.117Z,0
2024-04-09T06:41:22.089Z,0
2024-04-09T06:42:34.152Z,0
2024-04-09T06:43:46.099Z,0.6
2024-04-09T06:44:58.133Z,0.8
2024-04-09T06:46:10.123Z,0.5
2024-04-09T06:47:22.146Z,0.8
2024-04-09T06:48:36.103Z,0.8
2024-04-09T06:49:46.194Z,0.8
2024-04-09T06:50:58.095Z,0.6
2024-04-09T06:52:10.546Z,1
2024-04-09T06:53:22.518Z,1.1
2024-04-09T06:54:34.523Z,0.5
2024-04-09T06:55:46.554Z,0
2024-04-09T06:56:58.593Z,0.8
2024-04-09T06:58:10.512Z,1
2024-04-09T06:59:22.632Z,1.1
2024-04-09T07:00:34.638Z,1.2
2024-04-09T07:01:46.629Z,1.4
2024-04-09T07:02:58.638Z,1.1
2024-04-09T07:04:10.799Z,1.7
2024-04-09T07:05:22.535Z,1.1
2024-04-09T07:06:34.614Z,1.9
2024-04-09T07:07:46.571Z,2.2
2024-04-09T07:08:58.573Z,0.6
2024-04-09T07:10:10.572Z,1
2024-04-09T07:11:22.566Z,0.8
2024-04-09T07:12:34.762Z,1.3
2024-04-09T07:13:46.535Z,0.8
2024-04-09T07:14:58.543Z,1.2
2024-04-09T07:16:10.521Z,0.7
2024-04-09T07:17:22.805Z,2.1
2024-04-09T07:18:35.883Z,1.9
2024-04-09T07:19:46.558Z,0.6
2024-04-09T07:20:58.567Z,0
2024-04-09T07:22:10.541Z,0.5
2024-04-09T07:23:22.613Z,1.4
2024-04-09T07:24:34.583Z,0
2024-04-09T07:25:46.509Z,0.6
2024-04-09T07:26:58.777Z,1.1
2024-04-09T07:28:10.536Z,1.2
2024-04-09T07:29:22.517Z,0.6
2024-04-09T07:30:34.566Z,0
2024-04-09T07:31:46.668Z,1.2
2024-04-09T07:32:58.541Z,0.7
2024-04-09T07:34:10.539Z,1.2
2024-04-09T07:35:22.576Z,0.8
2024-04-09T07:36:34.569Z,1.3
2024-04-09T07:37:46.513Z,2.3
2024-04-09T07:38:58.670Z,1.4
2024-04-09T07:40:10.506Z,0.5
2024-04-09T07:41:22.655Z,0.6
2024-04-09T07:42:34.548Z,1.8
2024-04-09T07:43:46.536Z,1.6
2024-04-09T07:44:58.559Z,1
2024-04-09T07:46:10.540Z,1.5
2024-04-09T07:47:22.656Z,2.2
2024-04-09T07:48:34.969Z,1.1
2024-04-09T07:49:47.054Z,1.3
2024-04-09T07:50:58.575Z,1.2
2024-04-09T07:52:10.986Z,0
2024-04-09T07:53:22.966Z,0.8
2024-04-09T07:54:35.020Z,1.2
2024-04-09T07:55:46.937Z,1.5
2024-04-09T07:56:59.170Z,1.4
2024-04-09T07:58:11.469Z,1.3
2024-04-09T07:59:22.937Z,1.5
2024-04-09T08:00:35.038Z,1.2
2024-04-09T08:01:46.978Z,1.1
2024-04-09T08:02:59.506Z,1.6
2024-04-09T08:04:11.294Z,2.1
2024-04-09T08:05:23.012Z,1.2
2024-04-09T08:06:35.030Z,1.6
2024-04-09T08:07:47.110Z,1
2024-04-09T08:08:59.106Z,2.8
2024-04-09T08:10:11.101Z,1
2024-04-09T08:11:23.106Z,1
2024-04-09T08:12:34.972Z,1.2
2024-04-09T08:13:46.980Z,2.1
2024-04-09T08:14:58.978Z,1.1
2024-04-09T08:16:10.943Z,1.2
2024-04-09T08:17:22.967Z,1.1
2024-04-09T08:18:35.153Z,1.1
2024-04-09T08:19:47.074Z,2.4
2024-04-09T08:20:58.977Z,1.6
2024-04-09T08:22:10.968Z,1.2
2024-04-09T08:23:22.973Z,2.1
2024-04-09T08:24:35.010Z,1.9
2024-04-09T08:25:47.051Z,0.8
2024-04-09T08:26:59.014Z,1.3
2024-04-09T08:28:10.949Z,1.8
2024-04-09T08:29:22.971Z,1.1
2024-04-09T08:30:35.054Z,1.7
2024-04-09T08:31:46.968Z,0.8
2024-04-09T08:32:59.094Z,1
2024-04-09T08:34:13.073Z,1.3
2024-04-09T08:35:23.010Z,1.1
2024-04-09T08:36:34.968Z,2
2024-04-09T08:37:47.062Z,2.6
2024-04-09T08:38:59.111Z,3.1
2024-04-09T08:40:10.983Z,2.1
2024-04-09T08:41:22.936Z,2.8
2024-04-09T08:42:35.075Z,2.3
2024-04-09T08:43:47.047Z,2.7
2024-04-09T08:44:59.107Z,2.2
2024-04-09T08:46:11.192Z,0.9
2024-04-09T08:47:22.982Z,1.2
2024-04-09T08:48:35.141Z,2
2024-04-09T08:49:47.507Z,2.1
2024-04-09T08:50:59.304Z,0.7
2024-04-09T08:52:11.430Z,0.6
2024-04-09T08:53:23.432Z,0.9
2024-04-09T08:54:35.569Z,0.8
2024-04-09T08:55:47.391Z,0.9
2024-04-09T08:56:59.406Z,0.9
2024-04-09T08:58:11.441Z,1.4
2024-04-09T08:59:23.413Z,2.8
2024-04-09T09:00:35.435Z,2
2024-04-09T09:01:47.429Z,1
2024-04-09T09:02:59.468Z,1.6
2024-04-09T09:04:11.411Z,2
2024-04-09T09:05:23.411Z,1
2024-04-09T09:06:35.417Z,2.2
2024-04-09T09:07:47.461Z,1.5
2024-04-09T09:08:59.543Z,1
2024-04-09T09:10:11.426Z,0.7
2024-04-09T09:11:23.433Z,0.6
2024-04-09T09:12:35.403Z,1.9
2024-04-09T09:13:47.415Z,2.5
2024-04-09T09:14:59.442Z,2.4
2024-04-09T09:16:11.402Z,1.2
2024-04-09T09:17:23.426Z,0.6
2024-04-09T09:18:35.445Z,0.8
2024-04-09T09:19:47.410Z,0.8
2024-04-09T09:20:59.494Z,1.6
2024-04-09T09:22:11.391Z,0.5
2024-04-09T09:23:23.436Z,1.5
2024-04-09T09:24:35.436Z,1
2024-04-09T09:25:47.401Z,1
2024-04-09T09:26:59.450Z,0.7
2024-04-09T09:28:11.423Z,1.1
2024-04-09T09:29:23.371Z,0.8
2024-04-09T09:30:35.431Z,0.9
2024-04-09T09:31:47.448Z,0.8
2024-04-09T09:32:59.572Z,1.8
2024-04-09T09:35:23.427Z,0.8
2024-04-09T09:36:35.429Z,0.7
2024-04-09T09:37:47.385Z,0.5
2024-04-09T09:38:59.424Z,1.2
2024-04-09T09:40:11.414Z,2.2
2024-04-09T09:41:23.431Z,3
2024-04-09T09:42:35.470Z,0.8
2024-04-09T09:43:47.429Z,2.3
2024-04-09T09:44:59.504Z,2.1
2024-04-09T09:46:11.433Z,1.7
2024-04-09T09:47:23.402Z,2.5
2024-04-09T09:48:35.432Z,2.2
2024-04-09T09:49:48.033Z,1.4
2024-04-09T09:50:59.417Z,1.4
2024-04-09T09:52:11.423Z,1.6
2024-04-09T09:53:23.966Z,0
2024-04-09T09:54:35.438Z,1.1
2024-04-09T09:55:47.392Z,2.4
2024-04-09T09:56:59.427Z,1.6
2024-04-09T09:58:11.392Z,1
2024-04-09T09:59:23.403Z,0.7
2024-04-09T10:00:35.673Z,1.6
2024-04-09T10:01:47.393Z,1.6
2024-04-09T10:02:59.505Z,1.9
2024-04-09T10:04:11.540Z,2.2
2024-04-09T10:05:23.435Z,1.1
2024-04-09T10:06:35.458Z,2
2024-04-09T10:07:47.398Z,2.2
2024-04-09T10:08:59.402Z,1.8
2024-04-09T10:10:11.400Z,3.3
2024-04-09T10:11:23.475Z,1.8
2024-04-09T10:12:35.593Z,0.7
2024-04-09T10:13:47.400Z,1.6
2024-04-09T10:14:59.497Z,2.8
2024-04-09T10:16:11.390Z,1.1
2024-04-09T10:17:23.438Z,2.9
2024-04-09T10:18:35.581Z,2.2
2024-04-09T10:19:47.409Z,2.8
2024-04-09T10:20:59.432Z,2
2024-04-09T10:22:11.415Z,2.3
2024-04-09T10:23:23.391Z,2.8
2024-04-09T10:24:35.440Z,1.7
2024-04-09T10:25:47.387Z,2.6
2024-04-09T10:26:59.438Z,2.3
2024-04-09T10:28:11.432Z,3.1
2024-04-09T10:29:23.366Z,2.4
2024-04-09T10:30:35.585Z,0.8
2024-04-09T10:31:47.404Z,2.3
2024-04-09T10:32:59.771Z,2.3
2024-04-09T10:34:11.485Z,1.4
2024-04-09T10:35:23.439Z,0.8
2024-04-09T10:36:35.445Z,1.1
2024-04-09T10:37:47.416Z,2
2024-04-09T10:38:59.434Z,0.7
2024-04-09T10:40:11.388Z,1.7
2024-04-09T10:41:23.404Z,0.8
2024-04-09T10:42:35.611Z,2.2
2024-04-09T10:43:47.417Z,2.8
2024-04-09T10:44:59.477Z,2
2024-04-09T10:46:13.582Z,4.4
2024-04-09T10:47:23.439Z,3.2
2024-04-09T10:48:35.488Z,2.2
2024-04-09T10:49:47.419Z,5.3
2024-04-09T10:50:59.476Z,3.4
2024-04-09T10:52:11.419Z,4.3
2024-04-09T10:53:23.399Z,2
2024-04-09T10:54:35.387Z,3.4
2024-04-09T10:55:47.394Z,2.9
2024-04-09T10:56:59.581Z,1.5
2024-04-09T10:58:11.400Z,2.3
2024-04-09T10:59:23.463Z,0.8
2024-04-09T11:00:35.440Z,3.4
2024-04-09T11:01:47.424Z,1.2
2024-04-09T11:02:59.439Z,1.9
2024-04-09T11:04:11.510Z,1.1
2024-04-09T11:05:23.423Z,2.1
2024-04-09T11:06:35.420Z,3.2
2024-04-09T11:07:47.383Z,1.3
2024-04-09T11:08:59.466Z,1.7
2024-04-09T11:10:11.395Z,1.3
2024-04-09T11:11:23.553Z,0.9
2024-04-09T11:12:35.389Z,1.1
2024-04-09T11:13:47.411Z,1.8
2024-04-09T11:14:59.617Z,1.1
2024-04-09T11:16:11.392Z,0.7
2024-04-09T11:17:23.445Z,1.5
2024-04-09T11:18:35.960Z,1.8
2024-04-09T11:19:50.136Z,1.5
2024-04-09T11:20:59.468Z,2.2
2024-04-09T11:22:11.388Z,1.8
2024-04-09T11:23:23.381Z,1.2
2024-04-09T11:24:35.482Z,1.9
2024-04-09T11:25:47.402Z,3.4
2024-04-09T11:26:59.439Z,2.6
2024-04-09T11:28:11.402Z,1.8
2024-04-09T11:29:23.389Z,2.4
2024-04-09T11:30:35.471Z,2.6
2024-04-09T11:31:47.407Z,1.3
2024-04-09T11:32:59.535Z,2
2024-04-09T11:34:11.497Z,3.1
2024-04-09T11:35:23.400Z,1
2024-04-09T11:36:35.575Z,2.3
2024-04-09T11:37:47.384Z,2.5
2024-04-09T11:38:59.488Z,1.2
2024-04-09T11:40:11.384Z,1.1
2024-04-09T11:41:23.388Z,2.3
2024-04-09T11:42:35.431Z,2.7
2024-04-09T11:43:47.415Z,2.4
2024-04-09T11:44:59.413Z,1.1
2024-04-09T11:46:11.416Z,1
2024-04-09T11:47:23.489Z,2.4
2024-04-09T11:48:35.546Z,1.7
2024-04-09T11:49:47.423Z,3.6
2024-04-09T11:50:59.459Z,2.4
2024-04-09T11:52:11.414Z,1.2
2024-04-09T11:53:24.143Z,1.6
2024-04-09T11:54:35.536Z,1.8
2024-04-09T11:55:47.426Z,3.1
2024-04-09T11:56:59.404Z,2.5
2024-04-09T11:58:11.411Z,1.1
2024-04-09T11:59:23.428Z,0.7
2024-04-09T12:00:35.462Z,1.1
2024-04-09T12:01:47.441Z,0.9
2024-04-09T12:02:59.421Z,1.4
2024-04-09T12:04:11.528Z,0.7
2024-04-09T12:05:23.682Z,1.5
2024-04-09T12:06:35.461Z,2.1
2024-04-09T12:07:47.418Z,0.5
2024-04-09T12:08:59.388Z,0.8
2024-04-09T12:10:11.388Z,0.9
2024-04-09T12:11:23.434Z,0.8
2024-04-09T12:12:35.442Z,1
2024-04-09T12:13:47.412Z,1
2024-04-09T12:14:59.393Z,0.8
2024-04-09T12:16:11.410Z,2.2
2024-04-09T12:17:23.421Z,1
2024-04-09T12:18:35.617Z,1.6
2024-04-09T12:19:47.434Z,2.8
2024-04-09T12:20:59.428Z,1.4
2024-04-09T12:22:11.394Z,1.1
2024-04-09T12:23:23.404Z,0.9
2024-04-09T12:24:35.490Z,1.1
2024-04-09T12:25:47.422Z,0.5
2024-04-09T12:26:59.427Z,1.2
2024-04-09T12:28:11.457Z,1.4
2024-04-09T12:29:23.408Z,1.2
2024-04-09T12:30:35.431Z,1
2024-04-09T12:31:47.401Z,1
2024-04-09T12:32:59.491Z,2.5
2024-04-09T12:34:11.506Z,0.8
2024-04-09T12:35:23.436Z,1.3
2024-04-09T12:36:35.451Z,1.8
2024-04-09T12:37:47.441Z,0.9
2024-04-09T12:38:59.399Z,0.5
2024-04-09T12:40:11.402Z,0.8
2024-04-09T12:41:24.905Z,1.1
2024-04-09T12:42:35.485Z,1.9
2024-04-09T12:43:47.447Z,1.8
2024-04-09T12:44:59.419Z,0.7
2024-04-09T12:46:11.420Z,0.8
2024-04-09T12:47:23.428Z,1.4
2024-04-09T12:48:35.708Z,1.3
2024-04-09T12:49:47.452Z,0.6
2024-04-09T12:50:59.414Z,0.7
2024-04-09T12:52:11.841Z,0.9
2024-04-09T12:53:23.870Z,2.4
2024-04-09T12:54:35.916Z,2.2
2024-04-09T12:55:47.844Z,1.2
2024-04-09T12:56:59.900Z,0.9
2024-04-09T12:58:11.861Z,1
2024-04-09T12:59:30.302Z,0.7
2024-04-09T13:01:47.879Z,0.9
2024-04-09T13:02:59.970Z,0
2024-04-09T13:04:13.489Z,0.8
2024-04-09T13:05:24.127Z,0.5
2024-04-09T13:06:35.967Z,0.7
2024-04-09T13:07:47.839Z,1
2024-04-09T13:08:59.875Z,3.3
2024-04-09T13:10:11.828Z,1.3
2024-04-09T13:11:23.873Z,2.2
2024-04-09T13:12:35.892Z,1.6
2024-04-09T13:13:47.827Z,1.1
2024-04-09T13:17:23.951Z,0.8
2024-04-09T13:18:35.960Z,0.7
2024-04-09T13:19:47.914Z,0
2024-04-09T13:20:59.892Z,0.8
2024-04-09T13:22:11.835Z,0.7
2024-04-09T13:23:23.840Z,1.2
2024-04-09T13:24:35.927Z,1
2024-04-09T13:25:47.873Z,2
2024-04-09T13:26:59.856Z,2.2
2024-04-09T13:28:11.874Z,2
2024-04-09T13:29:24.206Z,0.8
2024-04-09T13:30:35.872Z,1.4
2024-04-09T13:31:47.893Z,1.1
2024-04-09T13:32:59.907Z,1
2024-04-09T13:34:11.913Z,1
2024-04-09T13:35:23.919Z,2.4
2024-04-09T13:36:35.855Z,1.4
2024-04-09T13:37:47.870Z,1
2024-04-09T13:38:59.884Z,1.1
2024-04-09T13:40:11.903Z,2.2
2024-04-09T13:41:23.875Z,0.9
2024-04-09T13:42:35.859Z,0.7
2024-04-09T13:43:47.884Z,1.7
2024-04-09T13:44:59.823Z,2.4
2024-04-09T13:46:11.826Z,2
2024-04-09T13:47:23.972Z,1.8
2024-04-09T13:48:36.031Z,1.1
2024-04-09T13:49:47.896Z,0.8
2024-04-09T13:50:59.832Z,1.1
2024-04-09T13:52:12.352Z,2.1
2024-04-09T13:53:24.323Z,1
2024-04-09T13:54:36.302Z,1.6
2024-04-09T13:55:48.287Z,2.1
2024-04-09T13:57:00.303Z,2.1
2024-04-09T13:58:12.288Z,3.1
2024-04-09T13:59:24.311Z,1.8
2024-04-09T14:00:36.342Z,2.9
2024-04-09T14:01:48.346Z,1
2024-04-09T14:03:00.368Z,1.1
2024-04-09T14:04:12.379Z,1.8
2024-04-09T14:05:24.391Z,1.1
2024-04-09T14:06:36.339Z,2.9
2024-04-09T14:07:48.285Z,2.1
2024-04-09T14:09:00.281Z,1
2024-04-09T14:10:12.320Z,2.2
2024-04-09T14:11:24.463Z,1.1
2024-04-09T14:12:36.468Z,2.3
2024-04-09T14:13:48.356Z,1
2024-04-09T14:15:00.325Z,1.2
2024-04-09T14:16:12.284Z,1.2
2024-04-09T14:17:24.458Z,0.7
2024-04-09T14:18:36.316Z,0.9
2024-04-09T14:19:48.376Z,0.9
2024-04-09T14:21:00.303Z,0.5
2024-04-09T14:22:12.289Z,2.1
2024-04-09T14:23:24.487Z,0
2024-04-09T14:24:36.296Z,0.7
2024-04-09T14:25:48.326Z,0.8
2024-04-09T14:27:00.289Z,0
2024-04-09T14:28:12.280Z,0.7
2024-04-09T14:29:24.511Z,0.7
2024-04-09T14:30:36.317Z,2.5
2024-04-09T14:31:48.337Z,2.2
2024-04-09T14:33:00.460Z,1.4
2024-04-09T14:34:12.462Z,2.5
2024-04-09T14:35:24.379Z,1.1
2024-04-09T14:36:36.298Z,1.4
2024-04-09T14:37:48.310Z,0.8
2024-04-09T14:39:00.302Z,2.4
2024-04-09T14:40:12.288Z,2.4
2024-04-09T14:41:24.346Z,2.8
2024-04-09T14:42:36.323Z,0.8
2024-04-09T14:43:48.312Z,1.2
2024-04-09T14:45:00.289Z,1.5
2024-04-09T14:46:12.283Z,1.4
2024-04-09T14:47:24.515Z,2.6
2024-04-09T14:48:36.587Z,2.8
2024-04-09T14:49:48.330Z,0.9
2024-04-09T14:51:00.311Z,1.8
2024-04-09T14:52:12.305Z,2.1
2024-04-09T14:53:24.447Z,1.8
2024-04-09T14:54:36.294Z,1.3
2024-04-09T14:55:48.322Z,2.4
2024-04-09T14:57:00.285Z,1
2024-04-09T14:58:12.290Z,3
2024-04-09T15:00:24.448Z,1.7
2024-04-09T15:01:36.352Z,1.2
2024-04-09T15:02:48.326Z,2.1
2024-04-09T15:04:00.386Z,0
2024-04-09T15:05:12.508Z,1.2
2024-04-09T15:06:24.322Z,2.2
2024-04-09T15:07:36.324Z,0
2024-04-09T15:08:48.304Z,1.4
2024-04-09T15:10:00.336Z,1.7
2024-04-09T15:11:12.400Z,0
2024-04-09T15:12:24.373Z,1.4
2024-04-09T15:13:36.295Z,0.7
2024-04-09T15:14:48.320Z,1.2
2024-04-09T15:16:00.311Z,1
2024-04-09T15:17:12.380Z,1
2024-04-09T15:18:24.501Z,0.8
2024-04-09T15:19:36.276Z,1.1
2024-04-09T15:20:48.295Z,2.5
2024-04-09T15:22:00.309Z,0
2024-04-09T15:23:12.297Z,1.7
2024-04-09T15:24:24.295Z,2.8
2024-04-09T15:25:36.308Z,1.1
2024-04-09T15:26:48.303Z,1.1
2024-04-09T15:28:00.336Z,1.4
2024-04-09T15:29:12.296Z,1.4
2024-04-09T15:30:24.351Z,1
2024-04-09T15:31:36.301Z,2.4
2024-04-09T15:32:48.421Z,2.4
2024-04-09T15:34:00.355Z,0.9
2024-04-09T15:35:12.510Z,0.8
2024-04-09T15:36:24.335Z,0.7
2024-04-09T15:37:36.315Z,0
2024-04-09T15:38:48.340Z,0.8
2024-04-09T15:40:00.329Z,1.7
2024-04-09T15:41:12.384Z,1.4
2024-04-09T15:42:24.306Z,1
2024-04-09T15:43:36.315Z,1.1
2024-04-09T15:44:48.301Z,1.4
2024-04-09T15:46:00.354Z,1.3
2024-04-09T15:47:12.398Z,2.5
2024-04-09T15:48:24.500Z,0.8
2024-04-09T15:49:36.343Z,1.4
2024-04-09T15:51:12.742Z,0.9
2024-04-09T15:52:24.747Z,1.6
2024-04-09T15:53:36.799Z,0.9
2024-04-09T15:54:48.720Z,0.8
2024-04-09T15:56:00.806Z,1
2024-04-09T15:57:12.729Z,2.3
2024-04-09T15:58:24.743Z,1.4
2024-04-09T15:59:36.755Z,1.8
2024-04-09T16:00:48.763Z,0
2024-04-09T16:02:00.780Z,1.5
2024-04-09T16:03:12.768Z,1.1
2024-04-09T16:04:24.768Z,0.6
2024-04-09T16:05:36.892Z,0
2024-04-09T16:08:00.806Z,0.9
2024-04-09T16:09:12.751Z,1.2
2024-04-09T16:10:24.746Z,0.9
2024-04-09T16:11:36.819Z,1.2
2024-04-09T16:12:48.726Z,1
2024-04-09T16:14:00.853Z,1
2024-04-09T16:15:12.729Z,0.5
2024-04-09T16:16:24.733Z,2.1
2024-04-09T16:17:36.837Z,2.4
2024-04-09T16:18:49.003Z,2.6
2024-04-09T16:20:00.822Z,1.2
2024-04-09T16:21:12.721Z,1.3
2024-04-09T16:22:24.744Z,1.7
2024-04-09T16:23:36.752Z,2.1
2024-04-09T16:24:48.748Z,0.8
2024-04-09T16:26:00.979Z,1.2
2024-04-09T16:27:12.742Z,1.9
2024-04-09T16:28:24.744Z,0.8
2024-04-09T16:29:36.885Z,0.7
2024-04-09T16:30:48.738Z,1.2
2024-04-09T16:32:00.779Z,0.8
2024-04-09T16:33:12.836Z,1.1
2024-04-09T16:34:24.744Z,1.9
2024-04-09T16:36:00.728Z,3
2024-04-09T16:37:12.741Z,1.4
2024-04-09T16:38:36.732Z,1.3
2024-04-09T16:39:48.818Z,1.2
2024-04-09T16:41:00.800Z,1
2024-04-09T16:42:12.747Z,0.9
2024-04-09T16:43:24.741Z,1.5
2024-04-09T16:44:36.770Z,1.5
2024-04-09T16:45:48.728Z,0.6
2024-04-09T16:47:01.119Z,1
2024-04-09T16:48:00.881Z,1.6
2024-04-09T16:49:12.819Z,2.4
2024-04-09T16:50:24.890Z,1.1
2024-04-09T16:51:37.386Z,1.7
2024-04-09T16:52:49.246Z,2.1
2024-04-09T16:54:01.185Z,0.8
2024-04-09T16:55:13.196Z,0.7
2024-04-09T16:56:25.205Z,0.5
2024-04-09T16:57:41.399Z,3.1
2024-04-09T16:58:49.186Z,1.4
2024-04-09T17:00:01.246Z,0.8
2024-04-09T17:01:13.215Z,2.5
2024-04-09T17:02:25.242Z,3
2024-04-09T17:03:37.460Z,1.8
2024-04-09T17:04:49.248Z,2.4
2024-04-09T17:06:01.198Z,0.8
2024-04-09T17:07:13.211Z,1.4
2024-04-09T17:08:25.256Z,1.8